createdAt,value
2023-03-01T00:02:11.547Z,32.27
2023-03-01T00:07:13.447Z,37.63
2023-03-01T00:12:15.157Z,34.93
2023-03-01T00:17:16.823Z,42.00
2023-03-01T00:22:18.419Z,36.70
2023-03-01T00:27:20.024Z,36.60
2023-03-01T00:32:21.652Z,38.33
2023-03-01T00:37:24.066Z,36.53
2023-03-01T00:42:25.697Z,42.07
2023-03-01T00:47:30.034Z,42.33
2023-03-01T00:52:31.649Z,38.37
2023-03-01T00:57:34.440Z,39.70
2023-03-01T01:02:36.671Z,46.10
2023-03-01T01:07:38.603Z,44.20
2023-03-01T01:12:40.253Z,43.00
2023-03-01T01:17:42.043Z,41.07
2023-03-01T01:22:43.660Z,44.43
2023-03-01T01:27:46.318Z,45.30
2023-03-01T01:32:47.919Z,46.50
2023-03-01T01:37:49.530Z,43.20
2023-03-01T01:42:51.723Z,43.00
2023-03-01T01:47:56.501Z,32.93
2023-03-01T01:52:58.827Z,37.93
2023-03-01T01:58:05.849Z,35.70
2023-03-01T02:03:12.826Z,42.97
2023-03-01T02:08:17.465Z,41.23
2023-03-01T02:13:19.209Z,42.93
2023-03-01T02:18:24.580Z,48.90
2023-03-01T02:23:26.870Z,41.17
2023-03-01T02:28:36.444Z,37.43
2023-03-01T02:33:40.004Z,38.20
2023-03-01T02:38:43.095Z,36.50
2023-03-01T02:43:44.957Z,35.83
2023-03-01T02:48:55.792Z,35.53
2023-03-01T02:54:11.044Z,40.20
2023-03-01T02:59:12.787Z,31.37
2023-03-01T03:04:18.079Z,37.17
2023-03-01T03:09:23.210Z,40.03
2023-03-01T03:14:24.833Z,44.17
2023-03-01T03:19:26.666Z,46.10
2023-03-01T03:24:39.295Z,36.47
2023-03-01T03:29:41.003Z,42.37
2023-03-01T03:34:42.641Z,41.40
2023-03-01T03:39:44.238Z,41.43
2023-03-01T03:44:45.844Z,39.70
2023-03-01T03:49:47.479Z,44.77
2023-03-01T03:54:49.090Z,38.37
2023-03-01T03:59:50.693Z,39.87
2023-03-01T04:04:53.428Z,38.67
2023-03-01T04:09:55.026Z,40.57
2023-03-01T04:14:56.687Z,42.83
2023-03-01T04:19:59.928Z,38.73
2023-03-01T04:25:03.035Z,48.77
2023-03-01T04:30:05.099Z,36.00
2023-03-01T04:35:06.994Z,33.93
2023-03-01T04:40:17.301Z,44.53
2023-03-01T04:45:19.217Z,42.63
2023-03-01T04:50:22.659Z,50.23
2023-03-01T04:55:26.842Z,51.08
2023-03-01T05:00:28.518Z,49.03
2023-03-01T05:05:37.215Z,37.50
2023-03-01T05:10:39.827Z,40.23
2023-03-01T05:15:41.851Z,43.30
2023-03-01T05:20:43.905Z,48.93
2023-03-01T05:25:45.907Z,39.73
2023-03-01T05:30:48.389Z,40.97
2023-03-01T05:35:51.442Z,46.20
2023-03-01T05:40:53.149Z,45.20
2023-03-01T05:45:54.817Z,42.00
2023-03-01T05:51:01.280Z,40.63
2023-03-01T05:56:05.626Z,44.90
2023-03-01T06:01:13.365Z,43.50
2023-03-01T06:06:14.978Z,44.47
2023-03-01T06:11:16.943Z,36.33
2023-03-01T06:16:18.577Z,47.28
2023-03-01T06:21:20.197Z,43.27
2023-03-01T06:26:21.805Z,48.93
2023-03-01T06:31:23.460Z,38.17
2023-03-01T06:36:25.203Z,40.73
2023-03-01T06:41:26.977Z,42.70
2023-03-01T06:46:28.856Z,41.33
2023-03-01T06:51:30.693Z,39.87
2023-03-01T06:56:33.512Z,32.70
2023-03-01T07:01:35.320Z,33.97
2023-03-01T07:06:37.005Z,39.93
2023-03-01T07:11:38.615Z,35.63
2023-03-01T07:16:40.239Z,33.43
2023-03-01T07:21:41.881Z,40.63
2023-03-01T07:26:43.525Z,33.93
2023-03-01T07:31:45.304Z,33.90
2023-03-01T07:36:47.049Z,36.35
2023-03-01T07:41:48.779Z,27.27
2023-03-01T07:46:57.390Z,33.25
2023-03-01T07:51:59.327Z,37.45
2023-03-01T07:57:00.960Z,30.65
2023-03-01T08:02:02.668Z,34.13
2023-03-01T08:07:06.628Z,34.38
2023-03-01T08:12:08.454Z,32.35
2023-03-01T08:17:10.093Z,38.63
2023-03-01T08:22:11.958Z,30.65
2023-03-01T08:27:14.344Z,29.45
2023-03-01T08:32:16.112Z,28.08
2023-03-01T08:37:17.862Z,33.03
2023-03-01T08:42:19.460Z,27.33
2023-03-01T08:47:21.089Z,32.90
2023-03-01T08:52:23.463Z,29.25
2023-03-01T08:57:25.083Z,34.95
2023-03-01T09:02:26.765Z,34.42
2023-03-01T09:07:31.386Z,34.83
2023-03-01T09:12:33.047Z,34.83
2023-03-01T09:17:34.668Z,32.22
2023-03-01T09:22:36.284Z,29.67
2023-03-01T09:27:37.892Z,27.17
2023-03-01T09:32:43.680Z,28.15
2023-03-01T09:37:45.635Z,25.10
2023-03-01T09:43:09.750Z,26.27
2023-03-01T09:48:19.777Z,31.48
2023-03-01T09:53:26.617Z,32.72
2023-03-01T09:58:47.060Z,27.23
2023-03-01T10:04:06.300Z,47.20
2023-03-01T10:09:18.866Z,29.17
2023-03-01T10:14:52.509Z,28.38
2023-03-01T10:19:56.119Z,33.00
2023-03-01T10:25:00.809Z,26.75
2023-03-01T10:30:21.036Z,26.48
2023-03-01T10:35:25.737Z,26.75
2023-03-01T10:40:27.564Z,28.55
2023-03-01T10:45:40.086Z,26.08
2023-03-01T10:50:44.599Z,24.67
2023-03-01T10:55:46.323Z,28.20
2023-03-01T11:00:51.246Z,28.05
2023-03-01T11:05:56.648Z,25.80
2023-03-01T11:11:27.203Z,25.60
2023-03-01T11:16:49.668Z,26.77
2023-03-01T11:21:55.727Z,28.90
2023-03-01T11:27:01.048Z,27.90
2023-03-01T11:32:08.594Z,24.38
2023-03-01T11:37:26.015Z,25.33
2023-03-01T11:42:53.203Z,29.50
2023-03-01T11:48:11.927Z,27.75
2023-03-01T11:53:27.886Z,29.08
2023-03-01T11:58:54.159Z,27.35
2023-03-01T12:04:23.483Z,21.65
2023-03-01T12:09:37.292Z,25.67
2023-03-01T12:14:48.094Z,20.75
2023-03-01T12:20:16.755Z,20.80
2023-03-01T12:25:35.826Z,23.48
2023-03-01T12:30:56.161Z,22.42
2023-03-01T12:36:12.899Z,17.10
2023-03-01T12:41:29.735Z,17.92
2023-03-01T12:46:45.455Z,16.40
2023-03-01T12:52:11.708Z,21.83
2023-03-01T12:57:38.749Z,20.92
2023-03-01T13:02:49.202Z,22.08
2023-03-01T13:08:03.562Z,22.65
2023-03-01T13:13:34.559Z,19.35
2023-03-01T13:18:36.218Z,20.58
2023-03-01T13:23:40.840Z,24.20
2023-03-01T13:28:45.162Z,25.58
2023-03-01T13:33:50.921Z,25.33
2023-03-01T13:38:56.254Z,21.95
2023-03-01T13:43:58.802Z,27.05
2023-03-01T13:49:01.378Z,22.77
2023-03-01T13:54:03.174Z,30.48
2023-03-01T13:59:18.552Z,21.85
2023-03-01T14:04:36.837Z,21.27
2023-03-01T14:09:45.039Z,23.35
2023-03-01T14:14:57.904Z,21.85
2023-03-01T14:20:24.342Z,22.10
2023-03-01T14:25:33.415Z,21.77
2023-03-01T14:30:42.674Z,24.15
2023-03-01T14:35:57.675Z,23.75
2023-03-01T14:41:07.150Z,29.08
2023-03-01T14:46:20.098Z,28.50
2023-03-01T14:51:22.481Z,24.45
2023-03-01T14:56:24.101Z,28.65
2023-03-01T15:01:25.880Z,29.42
2023-03-01T15:06:27.752Z,25.45
2023-03-01T15:11:34.226Z,25.92
2023-03-01T15:16:42.389Z,27.35
2023-03-01T15:21:48.033Z,31.00
2023-03-01T15:26:58.547Z,29.58
2023-03-01T15:32:07.034Z,25.70
2023-03-01T15:37:38.231Z,32.58
2023-03-01T15:42:39.868Z,27.45
2023-03-01T15:47:42.712Z,27.38
2023-03-01T15:52:44.496Z,26.90
2023-03-01T15:57:46.333Z,34.85
2023-03-01T16:02:47.962Z,30.55
2023-03-01T16:07:50.270Z,25.88
2023-03-01T16:12:53.621Z,27.65
2023-03-01T16:17:55.386Z,29.40
2023-03-01T16:23:01.459Z,23.23
2023-03-01T16:28:09.621Z,26.35
2023-03-01T16:33:33.321Z,27.70
2023-03-01T16:38:33.569Z,24.65
2023-03-01T16:43:35.215Z,27.20
2023-03-01T16:48:36.837Z,25.92
2023-03-01T16:53:39.048Z,27.88
2023-03-01T16:58:41.531Z,27.20
2023-03-01T17:03:44.091Z,24.90
2023-03-01T17:08:45.709Z,30.17
2023-03-01T17:13:47.818Z,27.58
2023-03-01T17:18:50.069Z,27.70
2023-03-01T17:23:56.431Z,27.80
2023-03-01T17:28:59.215Z,26.55
2023-03-01T17:34:01.734Z,32.20
2023-03-01T17:39:03.456Z,30.45
2023-03-01T17:44:05.172Z,26.90
2023-03-01T17:49:06.831Z,32.45
2023-03-01T17:54:08.469Z,36.90
2023-03-01T17:59:10.082Z,40.72
2023-03-01T18:04:12.155Z,39.33
2023-03-01T18:09:14.780Z,34.67
2023-03-01T18:14:16.462Z,32.08
2023-03-01T18:19:18.149Z,31.02
2023-03-01T18:24:19.990Z,33.85
2023-03-01T18:29:21.610Z,43.00
2023-03-01T18:34:24.159Z,32.38
2023-03-01T18:39:25.852Z,34.50
2023-03-01T18:44:27.475Z,35.53
2023-03-01T18:49:29.165Z,32.33
2023-03-01T18:54:30.932Z,40.72
2023-03-01T18:59:32.692Z,37.35
2023-03-01T19:04:34.372Z,41.47
2023-03-01T19:09:36.383Z,40.28
2023-03-01T19:14:38.053Z,39.33
2023-03-01T19:19:40.005Z,42.60
2023-03-01T19:24:41.614Z,40.75
2023-03-01T19:29:43.290Z,42.88
2023-03-01T19:34:46.685Z,40.25
2023-03-01T19:39:48.307Z,40.83
2023-03-01T19:44:49.910Z,40.97
2023-03-01T19:49:51.504Z,43.38
2023-03-01T19:54:58.145Z,42.72
2023-03-01T20:00:06.273Z,43.03
2023-03-01T20:05:14.002Z,48.00
2023-03-01T20:10:15.743Z,51.42
2023-03-01T20:15:17.373Z,58.15
2023-03-01T20:20:19.075Z,47.83
2023-03-01T20:25:20.717Z,51.00
2023-03-01T20:30:22.324Z,44.28
2023-03-01T20:35:24.044Z,47.75
2023-03-01T20:40:28.266Z,47.40
2023-03-01T20:45:29.944Z,56.58
2023-03-01T20:50:31.746Z,55.78
2023-03-01T20:55:33.635Z,48.80
2023-03-01T21:00:35.716Z,54.25
2023-03-01T21:05:37.430Z,46.13
2023-03-01T21:10:39.067Z,48.50
2023-03-01T21:15:40.682Z,53.15
2023-03-01T21:20:42.773Z,53.00
2023-03-01T21:25:45.401Z,55.85
2023-03-01T21:30:47.030Z,50.60
2023-03-01T21:35:48.933Z,58.33
2023-03-01T21:40:50.647Z,47.03
2023-03-01T21:45:52.366Z,52.08
2023-03-01T21:50:58.436Z,48.63
2023-03-01T21:56:01.494Z,59.40
2023-03-01T22:01:12.299Z,49.85
2023-03-01T22:06:19.875Z,48.10
2023-03-01T22:11:22.639Z,57.22
2023-03-01T22:16:28.225Z,49.22
2023-03-01T22:21:29.929Z,55.28
2023-03-01T22:26:37.509Z,53.25
2023-03-01T22:31:39.760Z,54.38
2023-03-01T22:36:41.516Z,55.83
2023-03-01T22:41:46.028Z,52.90
2023-03-01T22:46:48.191Z,54.78
2023-03-01T22:51:50.743Z,51.80
2023-03-01T22:56:52.438Z,40.50
2023-03-01T23:01:54.636Z,45.70
2023-03-01T23:06:56.813Z,50.08
2023-03-01T23:12:00.378Z,42.70
2023-03-01T23:17:02.628Z,43.65
2023-03-01T23:22:04.917Z,46.53
2023-03-01T23:27:06.854Z,49.33
2023-03-01T23:32:09.256Z,52.33
2023-03-01T23:37:10.923Z,48.33
2023-03-01T23:42:12.529Z,42.70
2023-03-01T23:47:14.188Z,41.65
2023-03-01T23:52:17.312Z,49.35
2023-03-01T23:57:19.947Z,49.95
